sensor_id;sensor_type;location;lat;lon;timestamp;temperature;humidity
18153;DHT22;9202;51.578;7.734;2023-03-20T00:00:40;10.80;99.90
18153;DHT22;9202;51.578;7.734;2023-03-20T00:02:43;10.80;99.90
18153;DHT22;9202;51.578;7.734;2023-03-20T00:04:46;10.80;99.90
18153;DHT22;9202;51.578;7.734;2023-03-20T00:06:48;10.80;99.90
18153;DHT22;9202;51.578;7.734;2023-03-20T00:08:52;10.70;99.90
18153;DHT22;9202;51.578;7.734;2023-03-20T00:10:55;10.80;99.90
18153;DHT22;9202;51.578;7.734;2023-03-20T00:12:57;10.80;99.90
18153;DHT22;9202;51.578;7.734;2023-03-20T00:15:01;10.80;99.90
18153;DHT22;9202;51.578;7.734;2023-03-20T00:17:07;10.70;99.90
18153;DHT22;9202;51.578;7.734;2023-03-20T00:19:13;10.70;99.90
18153;DHT22;9202;51.578;7.734;2023-03-20T00:21:17;10.70;99.90
18153;DHT22;9202;51.578;7.734;2023-03-20T00:23:20;10.70;99.90
18153;DHT22;9202;51.578;7.734;2023-03-20T00:25:23;11.30;99.90
18153;DHT22;9202;51.578;7.734;2023-03-20T00:27:27;10.70;99.90
18153;DHT22;9202;51.578;7.734;2023-03-20T00:29:30;10.70;99.90
18153;DHT22;9202;51.578;7.734;2023-03-20T00:31:33;10.60;99.90
18153;DHT22;9202;51.578;7.734;2023-03-20T00:33:36;10.60;99.90
18153;DHT22;9202;51.578;7.734;2023-03-20T00:35:39;10.50;99.90
18153;DHT22;9202;51.578;7.734;2023-03-20T00:37:42;10.50;99.90
18153;DHT22;9202;51.578;7.734;2023-03-20T00:39:45;10.40;99.90
18153;DHT22;9202;51.578;7.734;2023-03-20T00:41:48;10.40;99.90
18153;DHT22;9202;51.578;7.734;2023-03-20T00:43:52;10.30;99.90
18153;DHT22;9202;51.578;7.734;2023-03-20T00:45:55;10.30;99.90
18153;DHT22;9202;51.578;7.734;2023-03-20T00:47:57;10.20;99.90
18153;DHT22;9202;51.578;7.734;2023-03-20T00:50:00;10.20;99.90
18153;DHT22;9202;51.578;7.734;2023-03-20T00:52:04;10.20;99.90
18153;DHT22;9202;51.578;7.734;2023-03-20T00:54:09;10.20;99.90
18153;DHT22;9202;51.578;7.734;2023-03-20T00:56:23;10.20;99.90
18153;DHT22;9202;51.578;7.734;2023-03-20T00:58:23;10.20;99.90
18153;DHT22;9202;51.578;7.734;2023-03-20T01:00:28;10.20;99.90
18153;DHT22;9202;51.578;7.734;2023-03-20T01:02:31;10.10;99.90
18153;DHT22;9202;51.578;7.734;2023-03-20T01:04:35;10.10;99.90
18153;DHT22;9202;51.578;7.734;2023-03-20T01:06:38;10.00;99.90
18153;DHT22;9202;51.578;7.734;2023-03-20T01:08:41;9.90;99.90
18153;DHT22;9202;51.578;7.734;2023-03-20T01:10:43;9.90;99.90
18153;DHT22;9202;51.578;7.734;2023-03-20T01:12:46;9.90;99.90
18153;DHT22;9202;51.578;7.734;2023-03-20T01:14:49;9.90;99.90
18153;DHT22;9202;51.578;7.734;2023-03-20T01:16:53;9.90;99.90
18153;DHT22;9202;51.578;7.734;2023-03-20T01:18:56;9.80;99.90
18153;DHT22;9202;51.578;7.734;2023-03-20T01:20:59;9.80;99.90
18153;DHT22;9202;51.578;7.734;2023-03-20T01:23:01;9.80;99.90
18153;DHT22;9202;51.578;7.734;2023-03-20T01:25:05;9.80;99.90
18153;DHT22;9202;51.578;7.734;2023-03-20T01:27:09;9.80;99.90
18153;DHT22;9202;51.578;7.734;2023-03-20T01:29:18;9.80;99.90
18153;DHT22;9202;51.578;7.734;2023-03-20T01:31:21;9.70;99.90
18153;DHT22;9202;51.578;7.734;2023-03-20T01:33:23;9.70;99.90
18153;DHT22;9202;51.578;7.734;2023-03-20T01:35:28;9.70;99.90
18153;DHT22;9202;51.578;7.734;2023-03-20T01:37:33;9.70;99.90
18153;DHT22;9202;51.578;7.734;2023-03-20T01:39:36;9.70;99.90
18153;DHT22;9202;51.578;7.734;2023-03-20T01:41:39;9.70;99.90
18153;DHT22;9202;51.578;7.734;2023-03-20T01:43:42;9.60;99.90
18153;DHT22;9202;51.578;7.734;2023-03-20T01:45:48;9.60;99.90
18153;DHT22;9202;51.578;7.734;2023-03-20T01:48:01;9.60;99.90
18153;DHT22;9202;51.578;7.734;2023-03-20T01:50:29;9.60;99.90
18153;DHT22;9202;51.578;7.734;2023-03-20T01:52:35;9.50;99.90
18153;DHT22;9202;51.578;7.734;2023-03-20T01:54:37;9.50;99.90
18153;DHT22;9202;51.578;7.734;2023-03-20T01:56:43;9.50;99.90
18153;DHT22;9202;51.578;7.734;2023-03-20T01:58:47;9.50;99.90
18153;DHT22;9202;51.578;7.734;2023-03-20T02:00:51;9.50;99.90
18153;DHT22;9202;51.578;7.734;2023-03-20T02:02:54;9.40;99.90
18153;DHT22;9202;51.578;7.734;2023-03-20T02:05:00;9.40;99.90
18153;DHT22;9202;51.578;7.734;2023-03-20T02:07:03;9.40;99.90
18153;DHT22;9202;51.578;7.734;2023-03-20T02:09:09;9.40;99.90
18153;DHT22;9202;51.578;7.734;2023-03-20T02:11:13;9.40;99.90
18153;DHT22;9202;51.578;7.734;2023-03-20T02:13:17;9.40;99.90
18153;DHT22;9202;51.578;7.734;2023-03-20T02:15:24;9.40;99.90
18153;DHT22;9202;51.578;7.734;2023-03-20T02:17:29;9.40;99.90
18153;DHT22;9202;51.578;7.734;2023-03-20T02:19:37;9.30;99.90
18153;DHT22;9202;51.578;7.734;2023-03-20T02:22:00;9.30;99.90
18153;DHT22;9202;51.578;7.734;2023-03-20T02:24:13;9.30;99.90
18153;DHT22;9202;51.578;7.734;2023-03-20T02:26:25;9.30;99.90
18153;DHT22;9202;51.578;7.734;2023-03-20T02:30:55;9.20;99.90
18153;DHT22;9202;51.578;7.734;2023-03-20T02:33:15;9.20;99.90
18153;DHT22;9202;51.578;7.734;2023-03-20T02:42:42;9.10;99.90
18153;DHT22;9202;51.578;7.734;2023-03-20T02:44:46;9.10;99.90
18153;DHT22;9202;51.578;7.734;2023-03-20T02:46:53;9.10;99.90
18153;DHT22;9202;51.578;7.734;2023-03-20T02:49:00;9.10;99.90
18153;DHT22;9202;51.578;7.734;2023-03-20T02:51:05;9.10;99.90
18153;DHT22;9202;51.578;7.734;2023-03-20T02:53:10;9.10;99.90
18153;DHT22;9202;51.578;7.734;2023-03-20T02:55:18;9.10;99.90
18153;DHT22;9202;51.578;7.734;2023-03-20T02:57:24;9.10;99.90
18153;DHT22;9202;51.578;7.734;2023-03-20T02:59:28;9.10;99.90
18153;DHT22;9202;51.578;7.734;2023-03-20T03:01:34;9.10;99.90
18153;DHT22;9202;51.578;7.734;2023-03-20T03:03:37;9.10;99.90
18153;DHT22;9202;51.578;7.734;2023-03-20T03:05:42;9.10;99.90
18153;DHT22;9202;51.578;7.734;2023-03-20T03:07:48;9.20;99.90
18153;DHT22;9202;51.578;7.734;2023-03-20T03:09:53;9.10;99.90
18153;DHT22;9202;51.578;7.734;2023-03-20T03:11:59;9.10;99.90
18153;DHT22;9202;51.578;7.734;2023-03-20T03:14:03;9.10;99.90
18153;DHT22;9202;51.578;7.734;2023-03-20T03:16:09;9.10;99.90
18153;DHT22;9202;51.578;7.734;2023-03-20T03:18:12;9.20;99.90
18153;DHT22;9202;51.578;7.734;2023-03-20T03:20:19;9.20;99.90
18153;DHT22;9202;51.578;7.734;2023-03-20T03:22:21;9.20;99.90
18153;DHT22;9202;51.578;7.734;2023-03-20T03:24:28;9.20;99.90
18153;DHT22;9202;51.578;7.734;2023-03-20T03:26:35;9.20;99.90
18153;DHT22;9202;51.578;7.734;2023-03-20T03:28:38;9.20;99.90
18153;DHT22;9202;51.578;7.734;2023-03-20T03:30:42;9.20;99.90
18153;DHT22;9202;51.578;7.734;2023-03-20T03:32:46;9.10;99.90
18153;DHT22;9202;51.578;7.734;2023-03-20T03:34:50;9.10;99.90
18153;DHT22;9202;51.578;7.734;2023-03-20T03:36:53;9.20;99.90
18153;DHT22;9202;51.578;7.734;2023-03-20T03:38:58;9.10;99.90
18153;DHT22;9202;51.578;7.734;2023-03-20T03:41:06;9.10;99.90
18153;DHT22;9202;51.578;7.734;2023-03-20T03:43:10;9.10;99.90
18153;DHT22;9202;51.578;7.734;2023-03-20T03:45:14;9.10;99.90
18153;DHT22;9202;51.578;7.734;2023-03-20T03:47:20;9.10;99.90
18153;DHT22;9202;51.578;7.734;2023-03-20T03:49:24;9.00;99.90
18153;DHT22;9202;51.578;7.734;2023-03-20T03:51:28;9.00;99.90
18153;DHT22;9202;51.578;7.734;2023-03-20T03:53:35;9.00;99.90
18153;DHT22;9202;51.578;7.734;2023-03-20T03:55:41;9.00;99.90
18153;DHT22;9202;51.578;7.734;2023-03-20T03:57:48;8.80;99.90
18153;DHT22;9202;51.578;7.734;2023-03-20T03:59:51;8.80;99.90
18153;DHT22;9202;51.578;7.734;2023-03-20T04:01:55;8.70;99.90
18153;DHT22;9202;51.578;7.734;2023-03-20T04:03:58;8.70;99.90
18153;DHT22;9202;51.578;7.734;2023-03-20T04:06:02;8.70;99.90
18153;DHT22;9202;51.578;7.734;2023-03-20T04:08:07;8.70;99.90
18153;DHT22;9202;51.578;7.734;2023-03-20T04:10:10;8.60;99.90
18153;DHT22;9202;51.578;7.734;2023-03-20T04:12:29;8.60;99.90
18153;DHT22;9202;51.578;7.734;2023-03-20T04:14:33;8.60;99.90
18153;DHT22;9202;51.578;7.734;2023-03-20T04:16:36;8.70;99.90
18153;DHT22;9202;51.578;7.734;2023-03-20T04:18:39;8.60;99.90
18153;DHT22;9202;51.578;7.734;2023-03-20T04:20:42;8.60;99.90
18153;DHT22;9202;51.578;7.734;2023-03-20T04:22:45;8.60;99.90
18153;DHT22;9202;51.578;7.734;2023-03-20T04:24:49;8.60;99.90
18153;DHT22;9202;51.578;7.734;2023-03-20T04:26:53;8.60;99.90
18153;DHT22;9202;51.578;7.734;2023-03-20T04:28:57;8.70;99.90
18153;DHT22;9202;51.578;7.734;2023-03-20T04:31:01;8.70;99.90
18153;DHT22;9202;51.578;7.734;2023-03-20T04:33:06;8.70;99.90
18153;DHT22;9202;51.578;7.734;2023-03-20T04:35:10;8.70;99.90
18153;DHT22;9202;51.578;7.734;2023-03-20T04:37:15;8.70;99.90
18153;DHT22;9202;51.578;7.734;2023-03-20T04:39:19;8.80;99.90
18153;DHT22;9202;51.578;7.734;2023-03-20T04:41:22;8.80;99.90
18153;DHT22;9202;51.578;7.734;2023-03-20T04:43:26;8.70;99.90
18153;DHT22;9202;51.578;7.734;2023-03-20T04:45:30;8.80;99.90
18153;DHT22;9202;51.578;7.734;2023-03-20T04:47:33;8.80;99.90
18153;DHT22;9202;51.578;7.734;2023-03-20T04:49:36;8.80;99.90
18153;DHT22;9202;51.578;7.734;2023-03-20T04:51:39;8.70;99.90
18153;DHT22;9202;51.578;7.734;2023-03-20T04:53:42;8.80;99.90
18153;DHT22;9202;51.578;7.734;2023-03-20T04:55:45;8.70;99.90
18153;DHT22;9202;51.578;7.734;2023-03-20T04:57:49;8.70;99.90
18153;DHT22;9202;51.578;7.734;2023-03-20T04:59:51;8.70;99.90
18153;DHT22;9202;51.578;7.734;2023-03-20T05:01:54;8.70;99.90
18153;DHT22;9202;51.578;7.734;2023-03-20T05:03:57;8.70;99.90
18153;DHT22;9202;51.578;7.734;2023-03-20T05:06:04;8.70;99.90
18153;DHT22;9202;51.578;7.734;2023-03-20T05:08:07;8.70;99.90
18153;DHT22;9202;51.578;7.734;2023-03-20T05:10:11;8.60;99.90
18153;DHT22;9202;51.578;7.734;2023-03-20T05:12:16;8.50;99.90
18153;DHT22;9202;51.578;7.734;2023-03-20T05:14:20;8.50;99.90
18153;DHT22;9202;51.578;7.734;2023-03-20T05:16:25;8.50;99.90
18153;DHT22;9202;51.578;7.734;2023-03-20T05:18:29;8.50;99.90
18153;DHT22;9202;51.578;7.734;2023-03-20T05:20:34;8.50;99.90
18153;DHT22;9202;51.578;7.734;2023-03-20T05:22:39;8.50;99.90
18153;DHT22;9202;51.578;7.734;2023-03-20T05:24:43;8.50;99.90
18153;DHT22;9202;51.578;7.734;2023-03-20T05:26:47;8.40;99.90
18153;DHT22;9202;51.578;7.734;2023-03-20T05:28:52;8.40;99.90
18153;DHT22;9202;51.578;7.734;2023-03-20T05:30:56;8.40;99.90
18153;DHT22;9202;51.578;7.734;2023-03-20T05:33:01;8.40;99.90
18153;DHT22;9202;51.578;7.734;2023-03-20T05:35:04;8.30;99.90
18153;DHT22;9202;51.578;7.734;2023-03-20T05:37:09;8.40;99.90
18153;DHT22;9202;51.578;7.734;2023-03-20T05:39:14;8.40;99.90
18153;DHT22;9202;51.578;7.734;2023-03-20T05:41:19;8.30;99.90
18153;DHT22;9202;51.578;7.734;2023-03-20T05:43:23;8.30;99.90
18153;DHT22;9202;51.578;7.734;2023-03-20T05:45:27;8.40;99.90
18153;DHT22;9202;51.578;7.734;2023-03-20T05:47:32;8.40;99.90
18153;DHT22;9202;51.578;7.734;2023-03-20T05:49:36;8.30;99.90
18153;DHT22;9202;51.578;7.734;2023-03-20T05:51:41;8.30;99.90
18153;DHT22;9202;51.578;7.734;2023-03-20T05:53:45;8.40;99.90
18153;DHT22;9202;51.578;7.734;2023-03-20T05:55:49;8.40;99.90
18153;DHT22;9202;51.578;7.734;2023-03-20T05:57:54;8.40;99.90
18153;DHT22;9202;51.578;7.734;2023-03-20T05:59:58;8.30;99.90
18153;DHT22;9202;51.578;7.734;2023-03-20T06:02:03;8.40;99.90
18153;DHT22;9202;51.578;7.734;2023-03-20T06:04:07;8.40;99.90
18153;DHT22;9202;51.578;7.734;2023-03-20T06:06:12;8.40;99.90
18153;DHT22;9202;51.578;7.734;2023-03-20T06:08:15;8.40;99.90
18153;DHT22;9202;51.578;7.734;2023-03-20T06:10:18;8.40;99.90
18153;DHT22;9202;51.578;7.734;2023-03-20T06:12:22;8.40;99.90
18153;DHT22;9202;51.578;7.734;2023-03-20T06:14:24;8.40;99.90
18153;DHT22;9202;51.578;7.734;2023-03-20T06:16:29;8.40;99.90
18153;DHT22;9202;51.578;7.734;2023-03-20T06:18:32;8.30;99.90
18153;DHT22;9202;51.578;7.734;2023-03-20T06:20:34;8.40;99.90
18153;DHT22;9202;51.578;7.734;2023-03-20T06:22:38;8.40;99.90
18153;DHT22;9202;51.578;7.734;2023-03-20T06:24:40;8.40;99.90
18153;DHT22;9202;51.578;7.734;2023-03-20T06:26:44;8.40;99.90
18153;DHT22;9202;51.578;7.734;2023-03-20T06:28:47;8.40;99.90
18153;DHT22;9202;51.578;7.734;2023-03-20T06:30:51;8.40;99.90
18153;DHT22;9202;51.578;7.734;2023-03-20T06:32:55;8.40;99.90
18153;DHT22;9202;51.578;7.734;2023-03-20T06:34:59;8.40;99.90
18153;DHT22;9202;51.578;7.734;2023-03-20T06:37:01;8.40;99.90
18153;DHT22;9202;51.578;7.734;2023-03-20T06:39:04;8.40;99.90
18153;DHT22;9202;51.578;7.734;2023-03-20T06:41:07;8.40;99.90
18153;DHT22;9202;51.578;7.734;2023-03-20T06:43:10;8.50;99.90
18153;DHT22;9202;51.578;7.734;2023-03-20T06:45:15;8.40;99.90
18153;DHT22;9202;51.578;7.734;2023-03-20T06:47:20;8.50;99.90
18153;DHT22;9202;51.578;7.734;2023-03-20T06:49:22;8.50;99.90
18153;DHT22;9202;51.578;7.734;2023-03-20T06:51:25;8.50;99.90
18153;DHT22;9202;51.578;7.734;2023-03-20T06:53:28;8.50;99.90
18153;DHT22;9202;51.578;7.734;2023-03-20T06:55:32;8.40;99.90
18153;DHT22;9202;51.578;7.734;2023-03-20T06:57:35;8.40;99.90
18153;DHT22;9202;51.578;7.734;2023-03-20T06:59:38;8.50;99.90
18153;DHT22;9202;51.578;7.734;2023-03-20T07:01:40;8.50;99.90
18153;DHT22;9202;51.578;7.734;2023-03-20T07:03:43;8.50;99.90
18153;DHT22;9202;51.578;7.734;2023-03-20T07:05:46;8.40;99.90
18153;DHT22;9202;51.578;7.734;2023-03-20T07:07:50;8.40;99.90
18153;DHT22;9202;51.578;7.734;2023-03-20T07:09:53;8.40;99.90
18153;DHT22;9202;51.578;7.734;2023-03-20T07:11:55;8.50;99.90
18153;DHT22;9202;51.578;7.734;2023-03-20T07:13:58;8.40;99.90
18153;DHT22;9202;51.578;7.734;2023-03-20T07:16:04;8.50;99.90
18153;DHT22;9202;51.578;7.734;2023-03-20T07:18:10;8.50;99.90
18153;DHT22;9202;51.578;7.734;2023-03-20T07:20:12;8.50;99.90
18153;DHT22;9202;51.578;7.734;2023-03-20T07:22:18;8.40;99.90
18153;DHT22;9202;51.578;7.734;2023-03-20T07:24:20;8.50;99.90
18153;DHT22;9202;51.578;7.734;2023-03-20T07:26:23;8.50;99.90
18153;DHT22;9202;51.578;7.734;2023-03-20T07:28:26;8.60;99.90
18153;DHT22;9202;51.578;7.734;2023-03-20T07:30:31;8.60;99.90
18153;DHT22;9202;51.578;7.734;2023-03-20T07:32:34;8.60;99.90
18153;DHT22;9202;51.578;7.734;2023-03-20T07:34:39;8.60;99.90
18153;DHT22;9202;51.578;7.734;2023-03-20T07:36:41;8.70;99.90
18153;DHT22;9202;51.578;7.734;2023-03-20T07:38:44;8.70;99.90
18153;DHT22;9202;51.578;7.734;2023-03-20T07:40:47;8.70;99.90
18153;DHT22;9202;51.578;7.734;2023-03-20T07:42:50;8.80;99.90
18153;DHT22;9202;51.578;7.734;2023-03-20T07:44:55;8.80;99.90
18153;DHT22;9202;51.578;7.734;2023-03-20T07:46:58;8.80;99.90
18153;DHT22;9202;51.578;7.734;2023-03-20T07:49:00;8.90;99.90
18153;DHT22;9202;51.578;7.734;2023-03-20T07:51:04;8.90;99.90
18153;DHT22;9202;51.578;7.734;2023-03-20T07:53:07;9.00;99.90
18153;DHT22;9202;51.578;7.734;2023-03-20T07:55:09;9.10;99.90
18153;DHT22;9202;51.578;7.734;2023-03-20T07:57:12;9.10;99.90
18153;DHT22;9202;51.578;7.734;2023-03-20T07:59:15;9.10;99.90
18153;DHT22;9202;51.578;7.734;2023-03-20T08:01:18;8.90;99.90
18153;DHT22;9202;51.578;7.734;2023-03-20T08:03:21;9.20;99.90
18153;DHT22;9202;51.578;7.734;2023-03-20T08:05:24;9.20;99.90
18153;DHT22;9202;51.578;7.734;2023-03-20T08:07:26;9.30;99.90
18153;DHT22;9202;51.578;7.734;2023-03-20T08:09:30;9.30;99.90
18153;DHT22;9202;51.578;7.734;2023-03-20T08:11:33;9.40;99.90
18153;DHT22;9202;51.578;7.734;2023-03-20T08:13:36;9.50;99.90
18153;DHT22;9202;51.578;7.734;2023-03-20T08:15:39;9.40;99.90
18153;DHT22;9202;51.578;7.734;2023-03-20T08:17:41;9.60;99.90
18153;DHT22;9202;51.578;7.734;2023-03-20T08:19:45;9.60;99.90
18153;DHT22;9202;51.578;7.734;2023-03-20T08:21:47;9.70;99.90
18153;DHT22;9202;51.578;7.734;2023-03-20T08:23:50;9.80;99.90
18153;DHT22;9202;51.578;7.734;2023-03-20T08:25:53;9.90;99.90
18153;DHT22;9202;51.578;7.734;2023-03-20T08:27:55;9.90;99.90
18153;DHT22;9202;51.578;7.734;2023-03-20T08:29:58;9.90;99.90
18153;DHT22;9202;51.578;7.734;2023-03-20T08:32:00;10.00;99.90
18153;DHT22;9202;51.578;7.734;2023-03-20T08:34:03;10.00;99.90
18153;DHT22;9202;51.578;7.734;2023-03-20T08:36:06;10.00;99.90
18153;DHT22;9202;51.578;7.734;2023-03-20T08:38:09;9.90;99.90
18153;DHT22;9202;51.578;7.734;2023-03-20T08:40:12;9.80;99.90
18153;DHT22;9202;51.578;7.734;2023-03-20T08:42:15;9.90;99.90
18153;DHT22;9202;51.578;7.734;2023-03-20T08:44:17;9.90;99.90
18153;DHT22;9202;51.578;7.734;2023-03-20T08:46:20;9.90;99.90
18153;DHT22;9202;51.578;7.734;2023-03-20T08:48:23;9.90;99.90
18153;DHT22;9202;51.578;7.734;2023-03-20T08:50:27;9.90;99.90
18153;DHT22;9202;51.578;7.734;2023-03-20T08:52:29;10.00;99.90
18153;DHT22;9202;51.578;7.734;2023-03-20T08:54:32;10.00;99.90
18153;DHT22;9202;51.578;7.734;2023-03-20T08:56:35;10.10;99.90
18153;DHT22;9202;51.578;7.734;2023-03-20T08:58:37;10.50;99.90
18153;DHT22;9202;51.578;7.734;2023-03-20T09:00:40;10.10;99.90
18153;DHT22;9202;51.578;7.734;2023-03-20T09:02:43;10.10;99.90
18153;DHT22;9202;51.578;7.734;2023-03-20T09:04:47;10.10;99.90
18153;DHT22;9202;51.578;7.734;2023-03-20T09:06:49;10.00;99.90
18153;DHT22;9202;51.578;7.734;2023-03-20T09:08:53;10.00;99.90
18153;DHT22;9202;51.578;7.734;2023-03-20T09:10:56;10.00;99.90
18153;DHT22;9202;51.578;7.734;2023-03-20T09:12:58;9.90;99.90
18153;DHT22;9202;51.578;7.734;2023-03-20T09:15:02;9.90;99.90
18153;DHT22;9202;51.578;7.734;2023-03-20T09:17:05;9.90;99.90
18153;DHT22;9202;51.578;7.734;2023-03-20T09:19:07;9.90;99.90
18153;DHT22;9202;51.578;7.734;2023-03-20T09:21:10;10.00;99.90
18153;DHT22;9202;51.578;7.734;2023-03-20T09:23:12;10.10;99.90
18153;DHT22;9202;51.578;7.734;2023-03-20T09:25:15;10.10;99.90
18153;DHT22;9202;51.578;7.734;2023-03-20T09:27:18;10.10;99.90
18153;DHT22;9202;51.578;7.734;2023-03-20T09:29:20;10.20;99.90
18153;DHT22;9202;51.578;7.734;2023-03-20T09:31:23;10.30;99.90
18153;DHT22;9202;51.578;7.734;2023-03-20T09:33:26;10.40;99.90
18153;DHT22;9202;51.578;7.734;2023-03-20T09:35:28;10.40;99.90
18153;DHT22;9202;51.578;7.734;2023-03-20T09:37:32;10.30;99.90
18153;DHT22;9202;51.578;7.734;2023-03-20T09:39:34;10.20;99.90
18153;DHT22;9202;51.578;7.734;2023-03-20T09:41:37;10.30;99.90
18153;DHT22;9202;51.578;7.734;2023-03-20T09:43:46;9.90;99.90
18153;DHT22;9202;51.578;7.734;2023-03-20T09:45:52;10.20;99.90
18153;DHT22;9202;51.578;7.734;2023-03-20T09:47:57;10.20;99.90
18153;DHT22;9202;51.578;7.734;2023-03-20T09:50:13;10.20;99.90
18153;DHT22;9202;51.578;7.734;2023-03-20T09:52:20;10.10;99.90
18153;DHT22;9202;51.578;7.734;2023-03-20T09:54:25;10.10;99.90
18153;DHT22;9202;51.578;7.734;2023-03-20T09:56:29;10.10;99.90
18153;DHT22;9202;51.578;7.734;2023-03-20T09:58:33;10.20;99.90
18153;DHT22;9202;51.578;7.734;2023-03-20T10:00:36;10.30;99.90
18153;DHT22;9202;51.578;7.734;2023-03-20T10:02:43;10.50;99.90
18153;DHT22;9202;51.578;7.734;2023-03-20T10:04:46;10.40;99.90
18153;DHT22;9202;51.578;7.734;2023-03-20T10:06:49;10.40;99.90
18153;DHT22;9202;51.578;7.734;2023-03-20T10:08:52;10.30;99.90
18153;DHT22;9202;51.578;7.734;2023-03-20T10:10:58;10.30;99.90
18153;DHT22;9202;51.578;7.734;2023-03-20T10:13:04;10.20;99.90
18153;DHT22;9202;51.578;7.734;2023-03-20T10:15:09;10.30;99.90
18153;DHT22;9202;51.578;7.734;2023-03-20T10:17:18;10.20;99.90
18153;DHT22;9202;51.578;7.734;2023-03-20T10:19:21;10.20;99.90
18153;DHT22;9202;51.578;7.734;2023-03-20T10:21:26;10.10;99.90
18153;DHT22;9202;51.578;7.734;2023-03-20T10:23:32;10.20;99.90
18153;DHT22;9202;51.578;7.734;2023-03-20T10:25:38;10.10;99.90
18153;DHT22;9202;51.578;7.734;2023-03-20T10:27:41;10.20;99.90
18153;DHT22;9202;51.578;7.734;2023-03-20T10:29:46;10.80;99.90
18153;DHT22;9202;51.578;7.734;2023-03-20T10:31:50;10.20;99.90
18153;DHT22;9202;51.578;7.734;2023-03-20T10:33:56;10.30;99.90
18153;DHT22;9202;51.578;7.734;2023-03-20T10:36:05;10.30;99.90
18153;DHT22;9202;51.578;7.734;2023-03-20T10:38:13;10.30;99.90
18153;DHT22;9202;51.578;7.734;2023-03-20T10:40:21;10.40;99.90
18153;DHT22;9202;51.578;7.734;2023-03-20T10:42:26;10.50;99.90
18153;DHT22;9202;51.578;7.734;2023-03-20T10:44:30;10.40;99.90
18153;DHT22;9202;51.578;7.734;2023-03-20T10:46:34;10.50;99.90
18153;DHT22;9202;51.578;7.734;2023-03-20T10:48:37;10.50;99.90
18153;DHT22;9202;51.578;7.734;2023-03-20T10:50:42;10.60;99.90
18153;DHT22;9202;51.578;7.734;2023-03-20T10:52:46;10.50;99.90
18153;DHT22;9202;51.578;7.734;2023-03-20T10:54:51;10.60;99.90
18153;DHT22;9202;51.578;7.734;2023-03-20T10:56:54;10.10;99.90
18153;DHT22;9202;51.578;7.734;2023-03-20T10:58:58;10.50;99.90
18153;DHT22;9202;51.578;7.734;2023-03-20T11:01:03;10.60;99.90
18153;DHT22;9202;51.578;7.734;2023-03-20T11:03:05;10.60;99.90
18153;DHT22;9202;51.578;7.734;2023-03-20T11:05:17;10.60;99.90
18153;DHT22;9202;51.578;7.734;2023-03-20T11:07:18;10.60;99.90
18153;DHT22;9202;51.578;7.734;2023-03-20T11:09:21;10.60;99.90
18153;DHT22;9202;51.578;7.734;2023-03-20T11:11:24;10.60;99.90
18153;DHT22;9202;51.578;7.734;2023-03-20T11:13:28;10.60;99.90
18153;DHT22;9202;51.578;7.734;2023-03-20T11:15:32;10.60;99.90
18153;DHT22;9202;51.578;7.734;2023-03-20T11:17:35;10.60;99.90
18153;DHT22;9202;51.578;7.734;2023-03-20T11:19:38;10.70;99.90
18153;DHT22;9202;51.578;7.734;2023-03-20T11:21:44;10.60;99.90
18153;DHT22;9202;51.578;7.734;2023-03-20T11:23:47;10.60;99.90
18153;DHT22;9202;51.578;7.734;2023-03-20T11:25:51;10.60;99.90
18153;DHT22;9202;51.578;7.734;2023-03-20T11:27:54;10.60;99.90
18153;DHT22;9202;51.578;7.734;2023-03-20T11:29:57;10.50;99.90
18153;DHT22;9202;51.578;7.734;2023-03-20T11:32:05;10.50;99.90
18153;DHT22;9202;51.578;7.734;2023-03-20T11:34:09;10.60;99.90
18153;DHT22;9202;51.578;7.734;2023-03-20T11:36:19;10.60;99.90
18153;DHT22;9202;51.578;7.734;2023-03-20T11:38:23;10.50;99.90
18153;DHT22;9202;51.578;7.734;2023-03-20T11:40:29;10.60;99.90
18153;DHT22;9202;51.578;7.734;2023-03-20T11:42:30;10.60;99.90
18153;DHT22;9202;51.578;7.734;2023-03-20T11:44:33;10.70;99.90
18153;DHT22;9202;51.578;7.734;2023-03-20T11:46:36;10.80;99.90
18153;DHT22;9202;51.578;7.734;2023-03-20T11:48:39;10.80;99.90
18153;DHT22;9202;51.578;7.734;2023-03-20T11:50:42;10.80;99.90
18153;DHT22;9202;51.578;7.734;2023-03-20T11:52:46;10.80;99.90
18153;DHT22;9202;51.578;7.734;2023-03-20T11:54:49;10.80;99.90
18153;DHT22;9202;51.578;7.734;2023-03-20T11:56:53;10.90;99.90
18153;DHT22;9202;51.578;7.734;2023-03-20T11:58:57;10.90;99.90
18153;DHT22;9202;51.578;7.734;2023-03-20T12:01:00;11.00;99.90
18153;DHT22;9202;51.578;7.734;2023-03-20T12:03:03;10.90;99.90
18153;DHT22;9202;51.578;7.734;2023-03-20T12:05:17;10.90;99.90
18153;DHT22;9202;51.578;7.734;2023-03-20T12:07:20;11.00;99.90
18153;DHT22;9202;51.578;7.734;2023-03-20T12:09:35;10.90;99.90
18153;DHT22;9202;51.578;7.734;2023-03-20T12:11:41;10.90;99.90
18153;DHT22;9202;51.578;7.734;2023-03-20T12:13:44;10.90;99.90
18153;DHT22;9202;51.578;7.734;2023-03-20T12:15:49;10.90;99.90
18153;DHT22;9202;51.578;7.734;2023-03-20T12:17:53;10.90;99.90
18153;DHT22;9202;51.578;7.734;2023-03-20T12:19:59;10.80;99.90
18153;DHT22;9202;51.578;7.734;2023-03-20T12:22:06;10.90;99.90
18153;DHT22;9202;51.578;7.734;2023-03-20T12:24:10;10.90;99.90
18153;DHT22;9202;51.578;7.734;2023-03-20T12:26:14;11.00;99.90
18153;DHT22;9202;51.578;7.734;2023-03-20T12:28:19;10.90;99.90
18153;DHT22;9202;51.578;7.734;2023-03-20T12:30:27;10.90;99.90
18153;DHT22;9202;51.578;7.734;2023-03-20T12:32:31;11.00;99.90
18153;DHT22;9202;51.578;7.734;2023-03-20T12:34:36;11.00;99.90
18153;DHT22;9202;51.578;7.734;2023-03-20T12:36:40;10.90;99.90
18153;DHT22;9202;51.578;7.734;2023-03-20T12:38:43;10.90;99.90
18153;DHT22;9202;51.578;7.734;2023-03-20T12:40:46;11.00;99.90
18153;DHT22;9202;51.578;7.734;2023-03-20T12:42:55;11.00;99.90
18153;DHT22;9202;51.578;7.734;2023-03-20T12:44:59;11.00;99.90
18153;DHT22;9202;51.578;7.734;2023-03-20T12:47:06;11.00;99.90
18153;DHT22;9202;51.578;7.734;2023-03-20T12:49:12;10.90;99.90
18153;DHT22;9202;51.578;7.734;2023-03-20T12:51:17;11.00;99.90
18153;DHT22;9202;51.578;7.734;2023-03-20T12:53:27;10.90;99.90
18153;DHT22;9202;51.578;7.734;2023-03-20T12:55:34;11.00;99.90
18153;DHT22;9202;51.578;7.734;2023-03-20T12:57:40;10.90;99.90
18153;DHT22;9202;51.578;7.734;2023-03-20T12:59:46;10.90;99.90
18153;DHT22;9202;51.578;7.734;2023-03-20T13:01:50;10.90;99.90
18153;DHT22;9202;51.578;7.734;2023-03-20T13:03:57;10.90;99.90
18153;DHT22;9202;51.578;7.734;2023-03-20T13:06:02;10.80;99.90
18153;DHT22;9202;51.578;7.734;2023-03-20T13:08:11;10.60;99.90
18153;DHT22;9202;51.578;7.734;2023-03-20T13:10:20;10.60;99.90
18153;DHT22;9202;51.578;7.734;2023-03-20T13:12:29;10.60;99.90
18153;DHT22;9202;51.578;7.734;2023-03-20T13:14:34;10.50;99.90
18153;DHT22;9202;51.578;7.734;2023-03-20T13:16:40;10.60;99.90
18153;DHT22;9202;51.578;7.734;2023-03-20T13:18:50;10.50;99.90
18153;DHT22;9202;51.578;7.734;2023-03-20T13:20:54;10.50;99.90
18153;DHT22;9202;51.578;7.734;2023-03-20T13:23:00;10.50;99.90
18153;DHT22;9202;51.578;7.734;2023-03-20T13:25:05;10.50;99.90
18153;DHT22;9202;51.578;7.734;2023-03-20T13:27:12;10.50;99.90
18153;DHT22;9202;51.578;7.734;2023-03-20T13:29:16;10.40;99.90
18153;DHT22;9202;51.578;7.734;2023-03-20T13:31:22;10.30;99.90
18153;DHT22;9202;51.578;7.734;2023-03-20T13:33:29;10.30;99.90
18153;DHT22;9202;51.578;7.734;2023-03-20T13:35:33;10.20;99.90